sensor_id;sensor_type;location;lat;lon;timestamp;pressure;altitude;pressure_sealevel;temperature;humidity
50123;BME280;36021;48.670;6.184;2023-02-16T00:00:44;100083.91;;;6.77;100.00
50123;BME280;36021;48.670;6.184;2023-02-16T00:03:18;100090.84;;;6.80;100.00
50123;BME280;36021;48.670;6.184;2023-02-16T00:05:44;100082.16;;;6.71;100.00
50123;BME280;36021;48.670;6.184;2023-02-16T00:08:10;100090.72;;;6.75;100.00
50123;BME280;36021;48.670;6.184;2023-02-16T00:10:36;100085.31;;;6.52;100.00
50123;BME280;36021;48.670;6.184;2023-02-16T00:13:09;100092.09;;;6.61;100.00
50123;BME280;36021;48.670;6.184;2023-02-16T00:16:01;100078.00;;;6.69;100.00
50123;BME280;36021;48.670;6.184;2023-02-16T00:18:26;100088.13;;;6.68;100.00
50123;BME280;36021;48.670;6.184;2023-02-16T00:20:51;100086.13;;;6.64;100.00
50123;BME280;36021;48.670;6.184;2023-02-16T00:23:17;100087.69;;;6.48;100.00
50123;BME280;36021;48.670;6.184;2023-02-16T00:25:42;100091.41;;;6.54;100.00
50123;BME280;36021;48.670;6.184;2023-02-16T00:28:12;100091.25;;;6.60;100.00
50123;BME280;36021;48.670;6.184;2023-02-16T00:30:39;100093.38;;;6.58;100.00
50123;BME280;36021;48.670;6.184;2023-02-16T00:33:12;100080.66;;;6.64;100.00
50123;BME280;36021;48.670;6.184;2023-02-16T00:35:38;100083.47;;;6.69;100.00
50123;BME280;36021;48.670;6.184;2023-02-16T00:38:04;100086.13;;;6.64;100.00
50123;BME280;36021;48.670;6.184;2023-02-16T00:40:30;100091.25;;;6.60;100.00
50123;BME280;36021;48.670;6.184;2023-02-16T00:42:58;100088.38;;;6.67;100.00
50123;BME280;36021;48.670;6.184;2023-02-16T00:45:24;100083.13;;;6.65;100.00
50123;BME280;36021;48.670;6.184;2023-02-16T00:47:50;100081.81;;;6.68;100.00
50123;BME280;36021;48.670;6.184;2023-02-16T00:50:30;100088.66;;;6.54;100.00
50123;BME280;36021;48.670;6.184;2023-02-16T00:52:56;100091.41;;;6.54;100.00
50123;BME280;36021;48.670;6.184;2023-02-16T00:55:35;100080.03;;;6.62;100.00
50123;BME280;36021;48.670;6.184;2023-02-16T01:00:45;100085.31;;;6.52;100.00
50123;BME280;36021;48.670;6.184;2023-02-16T01:03:13;100076.81;;;6.65;100.00
50123;BME280;36021;48.670;6.184;2023-02-16T01:05:39;100079.41;;;6.71;100.00
50123;BME280;36021;48.670;6.184;2023-02-16T01:08:11;100080.84;;;6.74;100.00
50123;BME280;36021;48.670;6.184;2023-02-16T01:10:55;100075.94;;;6.76;100.00
50123;BME280;36021;48.670;6.184;2023-02-16T01:13:25;100075.69;;;6.77;100.00
50123;BME280;36021;48.670;6.184;2023-02-16T01:15:53;100069.28;;;6.72;100.00
50123;BME280;36021;48.670;6.184;2023-02-16T01:18:19;100069.06;;;6.73;100.00
50123;BME280;36021;48.670;6.184;2023-02-16T01:20:45;100067.72;;;6.76;100.00
50123;BME280;36021;48.670;6.184;2023-02-16T01:23:11;100072.53;;;6.69;100.00
50123;BME280;36021;48.670;6.184;2023-02-16T01:25:39;100073.09;;;6.71;100.00
50123;BME280;36021;48.670;6.184;2023-02-16T01:28:19;100069.69;;;6.64;100.00
50123;BME280;36021;48.670;6.184;2023-02-16T01:30:46;100058.81;;;6.41;100.00
50123;BME280;36021;48.670;6.184;2023-02-16T01:33:14;100063.53;;;6.45;100.00
50123;BME280;36021;48.670;6.184;2023-02-16T01:35:40;100063.69;;;6.39;100.00
50123;BME280;36021;48.670;6.184;2023-02-16T01:38:06;100067.59;;;6.43;100.00
50123;BME280;36021;48.670;6.184;2023-02-16T01:43:06;100063.09;;;6.37;100.00
50123;BME280;36021;48.670;6.184;2023-02-16T01:45:38;100067.16;;;6.22;100.00
50123;BME280;36021;48.670;6.184;2023-02-16T01:48:05;100070.53;;;6.01;100.00
50123;BME280;36021;48.670;6.184;2023-02-16T01:50:48;100061.34;;;5.84;100.00
50123;BME280;36021;48.670;6.184;2023-02-16T01:53:19;100066.50;;;5.92;100.00
50123;BME280;36021;48.670;6.184;2023-02-16T01:55:48;100063.03;;;5.85;100.00
50123;BME280;36021;48.670;6.184;2023-02-16T01:58:20;100062.59;;;5.88;100.00
50123;BME280;36021;48.670;6.184;2023-02-16T02:03:17;100053.03;;;5.79;100.00
50123;BME280;36021;48.670;6.184;2023-02-16T02:06:02;100050.53;;;5.89;100.00
50123;BME280;36021;48.670;6.184;2023-02-16T02:08:33;100054.59;;;5.87;100.00
50123;BME280;36021;48.670;6.184;2023-02-16T02:11:04;100051.47;;;5.83;100.00
50123;BME280;36021;48.670;6.184;2023-02-16T02:15:58;100049.94;;;5.52;100.00
50123;BME280;36021;48.670;6.184;2023-02-16T02:18:25;100052.09;;;5.62;100.00
50123;BME280;36021;48.670;6.184;2023-02-16T02:31:40;100044.25;;;5.65;100.00
50123;BME280;36021;48.670;6.184;2023-02-16T02:34:25;100048.03;;;5.76;100.00
50123;BME280;36021;48.670;6.184;2023-02-16T02:39:34;100046.72;;;5.67;100.00
50123;BME280;36021;48.670;6.184;2023-02-16T02:42:09;100048.75;;;5.71;100.00
50123;BME280;36021;48.670;6.184;2023-02-16T02:44:53;100053.38;;;5.71;100.00
50123;BME280;36021;48.670;6.184;2023-02-16T02:47:21;100055.88;;;5.61;100.00
50123;BME280;36021;48.670;6.184;2023-02-16T02:49:53;100053.38;;;5.71;100.00
50123;BME280;36021;48.670;6.184;2023-02-16T02:52:19;100045.53;;;5.63;100.00
50123;BME280;36021;48.670;6.184;2023-02-16T02:54:47;100041.72;;;5.41;100.00
50123;BME280;36021;48.670;6.184;2023-02-16T03:03:06;100042.69;;;5.46;100.00
50123;BME280;36021;48.670;6.184;2023-02-16T03:05:34;100047.91;;;5.48;100.00
50123;BME280;36021;48.670;6.184;2023-02-16T03:08:04;100053.13;;;5.38;100.00
50123;BME280;36021;48.670;6.184;2023-02-16T03:10:39;100047.81;;;5.43;100.00
50123;BME280;36021;48.670;6.184;2023-02-16T03:13:26;100043.63;;;5.40;100.00
50123;BME280;36021;48.670;6.184;2023-02-16T03:15:53;100044.59;;;5.46;100.00
50123;BME280;36021;48.670;6.184;2023-02-16T03:18:20;100044.13;;;5.49;100.00
50123;BME280;36021;48.670;6.184;2023-02-16T03:21:06;100045.28;;;5.30;100.00
50123;BME280;36021;48.670;6.184;2023-02-16T03:23:51;100040.63;;;5.30;100.00
50123;BME280;36021;48.670;6.184;2023-02-16T03:26:37;100041.00;;;5.34;100.00
50123;BME280;36021;48.670;6.184;2023-02-16T03:29:22;100047.19;;;5.29;100.00
50123;BME280;36021;48.670;6.184;2023-02-16T03:31:49;100038.25;;;5.34;100.00
50123;BME280;36021;48.670;6.184;2023-02-16T03:34:17;100043.63;;;5.29;100.00
50123;BME280;36021;48.670;6.184;2023-02-16T03:36:43;100041.47;;;5.31;100.00
50123;BME280;36021;48.670;6.184;2023-02-16T03:39:10;100047.41;;;5.16;100.00
50123;BME280;36021;48.670;6.184;2023-02-16T03:41:41;100035.97;;;5.07;100.00
50123;BME280;36021;48.670;6.184;2023-02-16T03:44:08;100041.19;;;4.97;100.00
50123;BME280;36021;48.670;6.184;2023-02-16T03:46:35;100046.56;;;5.15;100.00
50123;BME280;36021;48.670;6.184;2023-02-16T03:49:01;100048.44;;;5.15;100.00
50123;BME280;36021;48.670;6.184;2023-02-16T03:51:26;100047.41;;;5.16;100.00
50123;BME280;36021;48.670;6.184;2023-02-16T03:53:53;100057.81;;;5.07;100.00
50123;BME280;36021;48.670;6.184;2023-02-16T03:56:21;100047.34;;;5.04;100.00
50123;BME280;36021;48.670;6.184;2023-02-16T03:58:46;100045.97;;;5.13;100.00
50123;BME280;36021;48.670;6.184;2023-02-16T04:01:12;100048.19;;;5.05;100.00
50123;BME280;36021;48.670;6.184;2023-02-16T04:03:38;100049.28;;;5.04;100.00
50123;BME280;36021;48.670;6.184;2023-02-16T04:06:03;100045.09;;;5.01;100.00
50123;BME280;36021;48.670;6.184;2023-02-16T04:08:29;100046.09;;;4.77;100.00
50123;BME280;36021;48.670;6.184;2023-02-16T04:10:54;100047.03;;;4.71;100.00
50123;BME280;36021;48.670;6.184;2023-02-16T04:13:21;100058.81;;;4.83;100.00
50123;BME280;36021;48.670;6.184;2023-02-16T04:15:47;100051.22;;;4.85;100.00
50123;BME280;36021;48.670;6.184;2023-02-16T04:18:13;100056.84;;;4.90;100.00
50123;BME280;36021;48.670;6.184;2023-02-16T04:20:38;100047.09;;;4.94;100.00
50123;BME280;36021;48.670;6.184;2023-02-16T04:23:04;100051.22;;;4.85;100.00
50123;BME280;36021;48.670;6.184;2023-02-16T04:25:30;100051.69;;;4.82;100.00
50123;BME280;36021;48.670;6.184;2023-02-16T04:27:56;100056.56;;;4.80;100.00
50123;BME280;36021;48.670;6.184;2023-02-16T04:30:22;100057.53;;;4.86;100.00
50123;BME280;36021;48.670;6.184;2023-02-16T04:32:51;100057.03;;;4.77;100.00
50123;BME280;36021;48.670;6.184;2023-02-16T04:35:18;100051.50;;;4.65;100.00
50123;BME280;36021;48.670;6.184;2023-02-16T04:37:44;100052.16;;;4.79;100.00
50123;BME280;36021;48.670;6.184;2023-02-16T04:40:10;100051.56;;;4.77;100.00
50123;BME280;36021;48.670;6.184;2023-02-16T04:42:39;100055.56;;;4.74;100.00
50123;BME280;36021;48.670;6.184;2023-02-16T04:45:06;100052.97;;;4.50;100.00
50123;BME280;36021;48.670;6.184;2023-02-16T04:47:33;100061.47;;;4.60;100.00
50123;BME280;36021;48.670;6.184;2023-02-16T04:49:59;100056.38;;;4.63;100.00
50123;BME280;36021;48.670;6.184;2023-02-16T04:52:24;100053.66;;;4.63;100.00
50123;BME280;36021;48.670;6.184;2023-02-16T04:54:51;100050.91;;;4.63;100.00
50123;BME280;36021;48.670;6.184;2023-02-16T04:57:17;100056.28;;;4.70;100.00
50123;BME280;36021;48.670;6.184;2023-02-16T04:59:45;100055.06;;;4.66;100.00
50123;BME280;36021;48.670;6.184;2023-02-16T05:02:11;100049.03;;;4.64;100.00
50123;BME280;36021;48.670;6.184;2023-02-16T05:04:36;100044.03;;;4.43;100.00
50123;BME280;36021;48.670;6.184;2023-02-16T05:07:02;100045.75;;;4.55;100.00
50123;BME280;36021;48.670;6.184;2023-02-16T05:09:27;100047.53;;;4.50;100.00
50123;BME280;36021;48.670;6.184;2023-02-16T05:11:53;100050.25;;;4.50;100.00
50123;BME280;36021;48.670;6.184;2023-02-16T05:14:37;100052.75;;;4.51;100.00
50123;BME280;36021;48.670;6.184;2023-02-16T05:17:19;100046.47;;;4.51;100.00
50123;BME280;36021;48.670;6.184;2023-02-16T05:19:46;100048.44;;;4.44;100.00
50123;BME280;36021;48.670;6.184;2023-02-16T05:22:12;100051.94;;;4.51;100.00
50123;BME280;36021;48.670;6.184;2023-02-16T05:24:38;100043.41;;;4.59;100.00
50123;BME280;36021;48.670;6.184;2023-02-16T05:27:04;100039.84;;;4.58;100.00
50123;BME280;36021;48.670;6.184;2023-02-16T05:29:31;100029.94;;;4.46;100.00
50123;BME280;36021;48.670;6.184;2023-02-16T05:31:56;100038.88;;;4.53;100.00
50123;BME280;36021;48.670;6.184;2023-02-16T05:34:24;100043.88;;;4.56;100.00
50123;BME280;36021;48.670;6.184;2023-02-16T05:36:50;100042.56;;;4.58;100.00
50123;BME280;36021;48.670;6.184;2023-02-16T05:39:16;100048.50;;;4.55;100.00
50123;BME280;36021;48.670;6.184;2023-02-16T05:41:41;100055.16;;;4.59;100.00
50123;BME280;36021;48.670;6.184;2023-02-16T05:44:08;100049.03;;;4.64;100.00
50123;BME280;36021;48.670;6.184;2023-02-16T05:46:35;100051.75;;;4.64;100.00
50123;BME280;36021;48.670;6.184;2023-02-16T05:49:02;100053.09;;;4.55;100.00
50123;BME280;36021;48.670;6.184;2023-02-16T05:51:28;100054.97;;;4.43;100.00
50123;BME280;36021;48.670;6.184;2023-02-16T05:53:55;100063.59;;;4.40;100.00
50123;BME280;36021;48.670;6.184;2023-02-16T05:56:21;100054.75;;;4.44;100.00
50123;BME280;36021;48.670;6.184;2023-02-16T05:58:47;100057.84;;;4.48;100.00
50123;BME280;36021;48.670;6.184;2023-02-16T06:01:13;100063.16;;;4.43;100.00
50123;BME280;36021;48.670;6.184;2023-02-16T06:03:38;100056.16;;;4.47;100.00
50123;BME280;36021;48.670;6.184;2023-02-16T06:06:04;100066.41;;;4.33;100.00
50123;BME280;36021;48.670;6.184;2023-02-16T06:08:30;100075.19;;;4.35;100.00
50123;BME280;36021;48.670;6.184;2023-02-16T06:10:56;100076.41;;;4.39;100.00
50123;BME280;36021;48.670;6.184;2023-02-16T06:13:23;100077.84;;;4.42;100.00
50123;BME280;36021;48.670;6.184;2023-02-16T06:15:52;100070.94;;;4.39;100.00
50123;BME280;36021;48.670;6.184;2023-02-16T06:18:19;100082.78;;;4.33;100.00
50123;BME280;36021;48.670;6.184;2023-02-16T06:20:45;100075.66;;;4.32;100.00
50123;BME280;36021;48.670;6.184;2023-02-16T06:23:11;100086.03;;;4.42;100.00
50123;BME280;36021;48.670;6.184;2023-02-16T06:25:37;100083.03;;;4.32;100.00
50123;BME280;36021;48.670;6.184;2023-02-16T06:28:05;100082.88;;;4.27;100.00
50123;BME280;36021;48.670;6.184;2023-02-16T06:30:30;100082.88;;;4.27;100.00
50123;BME280;36021;48.670;6.184;2023-02-16T06:32:59;100082.31;;;4.00;100.00
50123;BME280;36021;48.670;6.184;2023-02-16T06:35:26;100094.06;;;4.00;100.00
50123;BME280;36021;48.670;6.184;2023-02-16T06:37:51;100092.03;;;3.96;100.00
50123;BME280;36021;48.670;6.184;2023-02-16T06:40:17;100099.66;;;3.87;100.00
50123;BME280;36021;48.670;6.184;2023-02-16T06:42:43;100095.31;;;3.80;100.00
50123;BME280;36021;48.670;6.184;2023-02-16T06:45:09;100096.63;;;3.77;100.00
50123;BME280;36021;48.670;6.184;2023-02-16T06:47:36;100096.53;;;3.84;100.00
50123;BME280;36021;48.670;6.184;2023-02-16T06:50:02;100102.38;;;3.69;100.00
50123;BME280;36021;48.670;6.184;2023-02-16T06:52:28;100098.44;;;3.83;100.00
50123;BME280;36021;48.670;6.184;2023-02-16T06:54:54;100104.84;;;3.95;100.00
50123;BME280;36021;48.670;6.184;2023-02-16T06:57:21;100106.59;;;4.08;100.00
50123;BME280;36021;48.670;6.184;2023-02-16T06:59:47;100096.19;;;3.98;100.00
50123;BME280;36021;48.670;6.184;2023-02-16T07:02:13;100095.50;;;4.03;100.00
50123;BME280;36021;48.670;6.184;2023-02-16T07:04:39;100096.41;;;3.97;100.00
50123;BME280;36021;48.670;6.184;2023-02-16T07:07:04;100092.78;;;4.03;100.00
50123;BME280;36021;48.670;6.184;2023-02-16T07:09:30;100094.97;;;4.12;100.00
50123;BME280;36021;48.670;6.184;2023-02-16T07:11:55;100089.03;;;4.22;100.00
50123;BME280;36021;48.670;6.184;2023-02-16T07:14:21;100087.41;;;4.33;100.00
50123;BME280;36021;48.670;6.184;2023-02-16T07:16:47;100090.75;;;4.35;100.00
50123;BME280;36021;48.670;6.184;2023-02-16T07:19:12;100082.56;;;4.35;100.00
50123;BME280;36021;48.670;6.184;2023-02-16T07:21:38;100088.16;;;4.40;100.00
50123;BME280;36021;48.670;6.184;2023-02-16T07:24:03;100088.34;;;4.45;100.00
50123;BME280;36021;48.670;6.184;2023-02-16T07:26:29;100095.06;;;4.42;100.00
50123;BME280;36021;48.670;6.184;2023-02-16T07:28:54;100102.22;;;4.25;100.00
50123;BME280;36021;48.670;6.184;2023-02-16T07:31:21;100116.91;;;4.24;100.00
50123;BME280;36021;48.670;6.184;2023-02-16T07:33:50;100110.84;;;4.40;100.00
50123;BME280;36021;48.670;6.184;2023-02-16T07:36:16;100120.63;;;4.48;100.00
50123;BME280;36021;48.670;6.184;2023-02-16T07:38:41;100107.84;;;4.42;100.00
50123;BME280;36021;48.670;6.184;2023-02-16T07:41:07;100118.03;;;4.53;100.00
50123;BME280;36021;48.670;6.184;2023-02-16T07:43:33;100122.09;;;4.62;100.00
50123;BME280;36021;48.670;6.184;2023-02-16T07:46:00;100130.13;;;4.75;100.00
50123;BME280;36021;48.670;6.184;2023-02-16T07:48:27;100120.13;;;4.69;100.00
50123;BME280;36021;48.670;6.184;2023-02-16T07:50:55;100112.22;;;4.79;100.00
50123;BME280;36021;48.670;6.184;2023-02-16T07:53:20;100114.03;;;4.85;100.00
50123;BME280;36021;48.670;6.184;2023-02-16T07:55:46;100112.09;;;5.04;100.00
50123;BME280;36021;48.670;6.184;2023-02-16T07:58:12;100108.72;;;5.20;100.00
50123;BME280;36021;48.670;6.184;2023-02-16T08:00:52;100108.38;;;5.28;100.00
50123;BME280;36021;48.670;6.184;2023-02-16T08:03:18;100112.34;;;5.14;100.00
50123;BME280;36021;48.670;6.184;2023-02-16T08:05:43;100108.72;;;5.96;100.00
50123;BME280;36021;48.670;6.184;2023-02-16T08:08:09;100102.00;;;6.90;100.00
50123;BME280;36021;48.670;6.184;2023-02-16T08:10:34;100107.50;;;7.52;100.00
50123;BME280;36021;48.670;6.184;2023-02-16T08:13:00;100112.78;;;7.25;100.00
50123;BME280;36021;48.670;6.184;2023-02-16T08:15:26;100113.34;;;7.27;100.00
50123;BME280;36021;48.670;6.184;2023-02-16T08:17:51;100115.28;;;7.43;100.00
50123;BME280;36021;48.670;6.184;2023-02-16T08:20:17;100115.75;;;7.52;100.00
50123;BME280;36021;48.670;6.184;2023-02-16T08:22:42;100109.09;;;9.01;100.00
50123;BME280;36021;48.670;6.184;2023-02-16T08:25:08;100102.06;;;11.05;100.00
50123;BME280;36021;48.670;6.184;2023-02-16T08:27:33;100101.31;;;12.25;100.00
50123;BME280;36021;48.670;6.184;2023-02-16T08:30:01;100097.66;;;13.63;100.00
50123;BME280;36021;48.670;6.184;2023-02-16T08:32:30;100092.00;;;14.41;100.00
50123;BME280;36021;48.670;6.184;2023-02-16T08:34:56;100090.44;;;15.94;100.00
50123;BME280;36021;48.670;6.184;2023-02-16T08:37:22;100096.16;;;16.90;100.00
50123;BME280;36021;48.670;6.184;2023-02-16T08:39:48;100087.13;;;17.34;100.00
50123;BME280;36021;48.670;6.184;2023-02-16T08:42:14;100086.13;;;17.88;100.00
50123;BME280;36021;48.670;6.184;2023-02-16T08:44:40;100085.38;;;17.96;100.00
50123;BME280;36021;48.670;6.184;2023-02-16T08:47:06;100087.59;;;18.60;100.00
50123;BME280;36021;48.670;6.184;2023-02-16T08:49:33;100090.53;;;19.12;97.72
50123;BME280;36021;48.670;6.184;2023-02-16T08:51:59;100091.38;;;20.88;100.00
50123;BME280;36021;48.670;6.184;2023-02-16T08:54:26;100096.16;;;20.49;87.07
50123;BME280;36021;48.670;6.184;2023-02-16T08:56:54;100088.31;;;21.39;87.85
50123;BME280;36021;48.670;6.184;2023-02-16T08:59:21;100085.50;;;21.39;82.64
50123;BME280;36021;48.670;6.184;2023-02-16T09:01:47;100081.19;;;20.83;83.93
50123;BME280;36021;48.670;6.184;2023-02-16T09:04:13;100076.66;;;20.99;85.19
50123;BME280;36021;48.670;6.184;2023-02-16T09:06:39;100075.44;;;21.79;84.96
50123;BME280;36021;48.670;6.184;2023-02-16T09:09:06;100073.13;;;22.47;75.53
50123;BME280;36021;48.670;6.184;2023-02-16T09:11:33;100073.66;;;23.22;68.39
50123;BME280;36021;48.670;6.184;2023-02-16T09:13:59;100073.63;;;23.58;61.99
50123;BME280;36021;48.670;6.184;2023-02-16T09:16:25;100071.94;;;23.69;63.86
50123;BME280;36021;48.670;6.184;2023-02-16T09:18:53;100076.34;;;23.82;66.61
50123;BME280;36021;48.670;6.184;2023-02-16T09:21:20;100072.47;;;23.35;62.68
50123;BME280;36021;48.670;6.184;2023-02-16T09:23:46;100078.59;;;23.77;60.64
50123;BME280;36021;48.670;6.184;2023-02-16T09:26:13;100074.25;;;24.35;56.87
50123;BME280;36021;48.670;6.184;2023-02-16T09:28:39;100081.22;;;25.00;56.04
50123;BME280;36021;48.670;6.184;2023-02-16T09:31:12;100066.53;;;25.42;51.01
50123;BME280;36021;48.670;6.184;2023-02-16T09:33:41;100075.94;;;25.65;59.68
50123;BME280;36021;48.670;6.184;2023-02-16T09:36:07;100074.22;;;23.92;60.48
50123;BME280;36021;48.670;6.184;2023-02-16T09:38:34;100073.69;;;23.10;70.56
50123;BME280;36021;48.670;6.184;2023-02-16T09:41:07;100073.03;;;22.11;72.93
50123;BME280;36021;48.670;6.184;2023-02-16T09:46:03;100070.69;;;20.71;83.45
50123;BME280;36021;48.670;6.184;2023-02-16T09:48:34;100074.84;;;18.77;100.00
50123;BME280;36021;48.670;6.184;2023-02-16T09:51:00;100078.59;;;17.52;100.00
50123;BME280;36021;48.670;6.184;2023-02-16T09:56:03;100086.09;;;15.13;100.00
50123;BME280;36021;48.670;6.184;2023-02-16T10:04:25;100088.44;;;13.73;100.00
50123;BME280;36021;48.670;6.184;2023-02-16T10:07:04;100095.66;;;13.74;100.00
50123;BME280;36021;48.670;6.184;2023-02-16T10:09:36;100089.69;;;13.13;100.00
50123;BME280;36021;48.670;6.184;2023-02-16T10:12:04;100081.69;;;13.01;100.00
50123;BME280;36021;48.670;6.184;2023-02-16T10:14:36;100081.78;;;12.81;100.00
50123;BME280;36021;48.670;6.184;2023-02-16T10:19:36;100091.94;;;11.40;100.00
50123;BME280;36021;48.670;6.184;2023-02-16T10:22:04;100086.41;;;11.45;100.00
50123;BME280;36021;48.670;6.184;2023-02-16T10:24:32;100089.97;;;11.21;100.00
50123;BME280;36021;48.670;6.184;2023-02-16T10:27:02;100089.72;;;11.47;100.00
50123;BME280;36021;48.670;6.184;2023-02-16T10:29:32;100084.75;;;11.34;100.00
50123;BME280;36021;48.670;6.184;2023-02-16T10:32:01;100081.69;;;11.36;100.00
50123;BME280;36021;48.670;6.184;2023-02-16T10:42:17;100072.56;;;11.20;100.00
50123;BME280;36021;48.670;6.184;2023-02-16T10:44:49;100073.09;;;11.07;100.00
50123;BME280;36021;48.670;6.184;2023-02-16T10:47:25;100076.41;;;10.99;100.00
50123;BME280;36021;48.670;6.184;2023-02-16T10:49:53;100079.72;;;11.01;100.00
50123;BME280;36021;48.670;6.184;2023-02-16T10:52:19;100078.09;;;11.30;100.00
50123;BME280;36021;48.670;6.184;2023-02-16T10:54:45;100074.28;;;11.52;100.00
50123;BME280;36021;48.670;6.184;2023-02-16T10:57:45;100068.34;;;12.54;100.00
50123;BME280;36021;48.670;6.184;2023-02-16T11:00:05;100065.75;;;12.78;100.00
50123;BME280;36021;48.670;6.184;2023-02-16T11:02:36;100067.81;;;13.06;100.00
50123;BME280;36021;48.670;6.184;2023-02-16T11:08:01;100058.31;;;14.95;100.00
50123;BME280;36021;48.670;6.184;2023-02-16T11:10:49;100057.88;;;15.06;100.00
50123;BME280;36021;48.670;6.184;2023-02-16T11:13:23;100058.94;;;14.44;100.00
50123;BME280;36021;48.670;6.184;2023-02-16T11:15:51;100051.47;;;14.16;100.00
50123;BME280;36021;48.670;6.184;2023-02-16T11:18:28;100056.78;;;13.45;100.00
50123;BME280;36021;48.670;6.184;2023-02-16T11:20:54;100067.28;;;12.99;100.00
50123;BME280;36021;48.670;6.184;2023-02-16T11:23:21;100068.72;;;12.96;100.00
50123;BME280;36021;48.670;6.184;2023-02-16T11:25:58;100063.22;;;13.40;100.00
50123;BME280;36021;48.670;6.184;2023-02-16T11:28:25;100061.31;;;14.03;100.00
50123;BME280;36021;48.670;6.184;2023-02-16T11:30:55;100058.03;;;14.73;100.00
50123;BME280;36021;48.670;6.184;2023-02-16T11:33:26;100052.56;;;14.15;100.00
50123;BME280;36021;48.670;6.184;2023-02-16T11:35:54;100053.03;;;14.51;100.00
50123;BME280;36021;48.670;6.184;2023-02-16T11:38:27;100049.31;;;14.37;100.00
50123;BME280;36021;48.670;6.184;2023-02-16T11:40:53;100048.72;;;14.64;100.00
50123;BME280;36021;48.670;6.184;2023-02-16T11:43:19;100046.25;;;15.23;100.00
50123;BME280;36021;48.670;6.184;2023-02-16T11:45:55;100024.47;;;14.93;100.00
50123;BME280;36021;48.670;6.184;2023-02-16T11:48:26;100027.34;;;14.64;100.00
50123;BME280;36021;48.670;6.184;2023-02-16T11:50:55;100030.13;;;14.40;100.00
50123;BME280;36021;48.670;6.184;2023-02-16T11:53:26;100027.59;;;14.68;100.00
50123;BME280;36021;48.670;6.184;2023-02-16T11:58:38;100034.25;;;14.67;100.00
50123;BME280;36021;48.670;6.184;2023-02-16T12:14:21;100018.22;;;14.40;100.00
50123;BME280;36021;48.670;6.184;2023-02-16T12:19:41;100024.06;;;13.81;100.00
50123;BME280;36021;48.670;6.184;2023-02-16T12:25:15;100008.53;;;13.85;100.00
50123;BME280;36021;48.670;6.184;2023-02-16T12:27:46;100001.06;;;14.09;100.00
50123;BME280;36021;48.670;6.184;2023-02-16T12:37:59;99992.19;;;14.12;100.00
50123;BME280;36021;48.670;6.184;2023-02-16T12:40:43;99994.19;;;14.06;100.00
50123;BME280;36021;48.670;6.184;2023-02-16T12:45:51;99992.31;;;13.44;100.00
50123;BME280;36021;48.670;6.184;2023-02-16T12:50:43;99990.91;;;13.03;100.00
50123;BME280;36021;48.670;6.184;2023-02-16T12:55:54;99980.31;;;13.20;100.00
50123;BME280;36021;48.670;6.184;2023-02-16T13:00:57;99966.00;;;13.03;100.00
50123;BME280;36021;48.670;6.184;2023-02-16T13:03:38;99954.94;;;13.03;100.00
50123;BME280;36021;48.670;6.184;2023-02-16T13:06:13;99949.69;;;12.58;100.00
50123;BME280;36021;48.670;6.184;2023-02-16T13:11:37;99939.00;;;12.46;100.00
50123;BME280;36021;48.670;6.184;2023-02-16T13:14:13;99936.78;;;12.43;100.00
50123;BME280;36021;48.670;6.184;2023-02-16T13:16:45;99935.13;;;12.42;100.00
50123;BME280;36021;48.670;6.184;2023-02-16T13:19:12;99942.09;;;12.29;100.00
50123;BME280;36021;48.670;6.184;2023-02-16T13:27:21;99953.59;;;12.51;100.00
50123;BME280;36021;48.670;6.184;2023-02-16T13:45:26;99944.94;;;13.07;100.00
50123;BME280;36021;48.670;6.184;2023-02-16T13:47:53;99948.78;;;13.16;100.00
50123;BME280;36021;48.670;6.184;2023-02-16T13:52:46;99947.28;;;13.29;100.00
50123;BME280;36021;48.670;6.184;2023-02-16T13:55:33;99940.81;;;13.38;100.00
50123;BME280;36021;48.670;6.184;2023-02-16T14:00:44;99945.34;;;13.29;100.00
50123;BME280;36021;48.670;6.184;2023-02-16T14:05:48;99939.16;;;13.03;100.00
50123;BME280;36021;48.670;6.184;2023-02-16T14:08:18;99918.38;;;13.06;100.00
50123;BME280;36021;48.670;6.184;2023-02-16T14:13:26;99925.63;;;13.02;100.00
50123;BME280;36021;48.670;6.184;2023-02-16T14:15:53;99926.16;;;13.04;100.00
50123;BME280;36021;48.670;6.184;2023-02-16T14:18:29;99923.91;;;13.06;100.00
50123;BME280;36021;48.670;6.184;2023-02-16T14:21:04;99925.31;;;13.03;100.00
50123;BME280;36021;48.670;6.184;2023-02-16T14:23:30;99936.69;;;13.02;100.00
50123;BME280;36021;48.670;6.184;2023-02-16T14:26:05;99923.91;;;13.11;100.00
50123;BME280;36021;48.670;6.184;2023-02-16T14:30:58;99916.03;;;13.28;100.00
50123;BME280;36021;48.670;6.184;2023-02-16T14:33:44;99916.34;;;13.22;100.00
50123;BME280;36021;48.670;6.184;2023-02-16T14:36:15;99923.69;;;13.36;100.00
50123;BME280;36021;48.670;6.184;2023-02-16T14:38:42;99921.09;;;13.45;100.00
50123;BME280;36021;48.670;6.184;2023-02-16T14:41:11;99926.97;;;13.38;100.00
50123;BME280;36021;48.670;6.184;2023-02-16T14:57:15;99906.41;;;13.73;100.00
50123;BME280;36021;48.670;6.184;2023-02-16T15:02:29;99913.97;;;13.91;100.00
50123;BME280;36021;48.670;6.184;2023-02-16T15:04:55;99907.00;;;13.94;100.00
50123;BME280;36021;48.670;6.184;2023-02-16T15:07:21;99913.13;;;13.67;100.00
50123;BME280;36021;48.670;6.184;2023-02-16T15:09:48;99911.31;;;13.57;100.00
50123;BME280;36021;48.670;6.184;2023-02-16T15:12:36;99917.94;;;13.56;100.00
50123;BME280;36021;48.670;6.184;2023-02-16T15:15:03;99913.53;;;13.55;100.00
50123;BME280;36021;48.670;6.184;2023-02-16T15:17:42;99911.41;;;13.47;100.00
50123;BME280;36021;48.670;6.184;2023-02-16T15:22:47;99920.06;;;13.65;100.00
50123;BME280;36021;48.670;6.184;2023-02-16T15:25:21;99906.28;;;13.60;100.00